sensor_id;sensor_type;location;lat;lon;timestamp;P1;durP1;ratioP1;P2;durP2;ratioP2
11398;SDS011;5755;48.116;11.608;2023-06-22T00:01:12;11.55;;;4.45;;
11398;SDS011;5755;48.116;11.608;2023-06-22T00:03:39;9.85;;;4.35;;
11398;SDS011;5755;48.116;11.608;2023-06-22T00:06:06;6.30;;;4.47;;
11398;SDS011;5755;48.116;11.608;2023-06-22T00:08:35;9.88;;;4.57;;
11398;SDS011;5755;48.116;11.608;2023-06-22T00:11:01;7.43;;;4.10;;
11398;SDS011;5755;48.116;11.608;2023-06-22T00:13:28;8.52;;;4.28;;
11398;SDS011;5755;48.116;11.608;2023-06-22T00:15:55;7.22;;;4.55;;
11398;SDS011;5755;48.116;11.608;2023-06-22T00:18:22;7.50;;;4.07;;
11398;SDS011;5755;48.116;11.608;2023-06-22T00:20:52;6.75;;;4.05;;
11398;SDS011;5755;48.116;11.608;2023-06-22T00:23:22;8.75;;;4.72;;
11398;SDS011;5755;48.116;11.608;2023-06-22T00:25:51;9.07;;;4.15;;
11398;SDS011;5755;48.116;11.608;2023-06-22T00:28:18;7.13;;;4.22;;
11398;SDS011;5755;48.116;11.608;2023-06-22T00:30:46;8.25;;;4.35;;
11398;SDS011;5755;48.116;11.608;2023-06-22T00:33:14;8.07;;;4.15;;
11398;SDS011;5755;48.116;11.608;2023-06-22T00:35:41;7.53;;;4.55;;
11398;SDS011;5755;48.116;11.608;2023-06-22T00:38:08;9.32;;;4.38;;
11398;SDS011;5755;48.116;11.608;2023-06-22T00:40:35;8.00;;;4.20;;
11398;SDS011;5755;48.116;11.608;2023-06-22T00:43:03;8.52;;;4.38;;
11398;SDS011;5755;48.116;11.608;2023-06-22T00:45:30;9.90;;;4.57;;
11398;SDS011;5755;48.116;11.608;2023-06-22T00:47:57;7.65;;;3.95;;
11398;SDS011;5755;48.116;11.608;2023-06-22T00:50:25;7.32;;;4.43;;
11398;SDS011;5755;48.116;11.608;2023-06-22T00:52:53;9.13;;;4.22;;
11398;SDS011;5755;48.116;11.608;2023-06-22T00:55:23;7.88;;;4.57;;
11398;SDS011;5755;48.116;11.608;2023-06-22T00:57:51;7.90;;;4.50;;
11398;SDS011;5755;48.116;11.608;2023-06-22T01:00:22;7.10;;;4.50;;
11398;SDS011;5755;48.116;11.608;2023-06-22T01:02:50;6.45;;;4.32;;
11398;SDS011;5755;48.116;11.608;2023-06-22T01:05:18;6.15;;;4.22;;
11398;SDS011;5755;48.116;11.608;2023-06-22T01:07:48;11.18;;;4.80;;
11398;SDS011;5755;48.116;11.608;2023-06-22T01:10:24;6.93;;;4.43;;
11398;SDS011;5755;48.116;11.608;2023-06-22T01:12:57;5.78;;;4.28;;
11398;SDS011;5755;48.116;11.608;2023-06-22T01:15:29;7.97;;;4.80;;
11398;SDS011;5755;48.116;11.608;2023-06-22T01:18:00;9.80;;;4.15;;
11398;SDS011;5755;48.116;11.608;2023-06-22T01:20:30;9.60;;;4.82;;
11398;SDS011;5755;48.116;11.608;2023-06-22T01:23:03;7.75;;;4.60;;
11398;SDS011;5755;48.116;11.608;2023-06-22T01:25:36;7.10;;;4.78;;
11398;SDS011;5755;48.116;11.608;2023-06-22T01:28:15;9.50;;;4.82;;
11398;SDS011;5755;48.116;11.608;2023-06-22T01:30:50;10.00;;;4.68;;
11398;SDS011;5755;48.116;11.608;2023-06-22T01:33:31;11.57;;;5.07;;
11398;SDS011;5755;48.116;11.608;2023-06-22T01:36:00;6.93;;;4.57;;
11398;SDS011;5755;48.116;11.608;2023-06-22T01:38:28;10.90;;;4.55;;
11398;SDS011;5755;48.116;11.608;2023-06-22T01:40:56;7.95;;;4.40;;
11398;SDS011;5755;48.116;11.608;2023-06-22T01:43:24;9.10;;;5.30;;
11398;SDS011;5755;48.116;11.608;2023-06-22T01:45:54;10.55;;;5.10;;
11398;SDS011;5755;48.116;11.608;2023-06-22T01:48:21;8.77;;;5.05;;
11398;SDS011;5755;48.116;11.608;2023-06-22T01:50:51;13.18;;;4.68;;
11398;SDS011;5755;48.116;11.608;2023-06-22T01:53:18;9.02;;;4.97;;
11398;SDS011;5755;48.116;11.608;2023-06-22T01:55:47;7.18;;;4.78;;
11398;SDS011;5755;48.116;11.608;2023-06-22T01:58:14;11.10;;;4.85;;
11398;SDS011;5755;48.116;11.608;2023-06-22T02:00:52;9.77;;;5.10;;
11398;SDS011;5755;48.116;11.608;2023-06-22T02:03:23;10.68;;;5.00;;
11398;SDS011;5755;48.116;11.608;2023-06-22T02:05:56;6.45;;;4.57;;
11398;SDS011;5755;48.116;11.608;2023-06-22T02:08:30;8.88;;;5.28;;
11398;SDS011;5755;48.116;11.608;2023-06-22T02:11:01;9.05;;;5.15;;
11398;SDS011;5755;48.116;11.608;2023-06-22T02:13:29;10.52;;;6.00;;
11398;SDS011;5755;48.116;11.608;2023-06-22T02:15:59;7.38;;;4.70;;
11398;SDS011;5755;48.116;11.608;2023-06-22T02:18:27;9.88;;;5.15;;
11398;SDS011;5755;48.116;11.608;2023-06-22T02:20:53;11.15;;;5.80;;
11398;SDS011;5755;48.116;11.608;2023-06-22T02:23:21;10.65;;;5.72;;
11398;SDS011;5755;48.116;11.608;2023-06-22T02:25:47;12.25;;;5.72;;
11398;SDS011;5755;48.116;11.608;2023-06-22T02:28:14;7.72;;;5.50;;
11398;SDS011;5755;48.116;11.608;2023-06-22T02:30:41;13.43;;;5.75;;
11398;SDS011;5755;48.116;11.608;2023-06-22T02:33:10;8.18;;;5.32;;
11398;SDS011;5755;48.116;11.608;2023-06-22T02:35:37;10.45;;;5.60;;
11398;SDS011;5755;48.116;11.608;2023-06-22T02:38:04;9.88;;;5.25;;
11398;SDS011;5755;48.116;11.608;2023-06-22T02:40:31;9.15;;;5.28;;
11398;SDS011;5755;48.116;11.608;2023-06-22T02:42:58;9.40;;;5.65;;
11398;SDS011;5755;48.116;11.608;2023-06-22T02:45:27;11.25;;;5.20;;
11398;SDS011;5755;48.116;11.608;2023-06-22T02:47:54;11.05;;;5.68;;
11398;SDS011;5755;48.116;11.608;2023-06-22T02:50:23;9.88;;;4.95;;
11398;SDS011;5755;48.116;11.608;2023-06-22T02:52:50;10.20;;;5.38;;
11398;SDS011;5755;48.116;11.608;2023-06-22T02:55:17;7.82;;;5.50;;
11398;SDS011;5755;48.116;11.608;2023-06-22T02:57:44;8.30;;;4.93;;
11398;SDS011;5755;48.116;11.608;2023-06-22T03:00:13;11.55;;;5.50;;
11398;SDS011;5755;48.116;11.608;2023-06-22T03:02:43;10.18;;;5.43;;
11398;SDS011;5755;48.116;11.608;2023-06-22T03:05:10;9.20;;;5.70;;
11398;SDS011;5755;48.116;11.608;2023-06-22T03:07:40;9.45;;;5.28;;
11398;SDS011;5755;48.116;11.608;2023-06-22T03:10:08;9.27;;;5.47;;
11398;SDS011;5755;48.116;11.608;2023-06-22T03:12:35;8.88;;;5.15;;
11398;SDS011;5755;48.116;11.608;2023-06-22T03:15:03;10.57;;;5.80;;
11398;SDS011;5755;48.116;11.608;2023-06-22T03:17:31;10.13;;;5.43;;
11398;SDS011;5755;48.116;11.608;2023-06-22T03:19:58;9.60;;;5.50;;
11398;SDS011;5755;48.116;11.608;2023-06-22T03:22:25;11.65;;;5.97;;
11398;SDS011;5755;48.116;11.608;2023-06-22T03:24:53;9.77;;;5.72;;
11398;SDS011;5755;48.116;11.608;2023-06-22T03:27:20;8.65;;;5.30;;
11398;SDS011;5755;48.116;11.608;2023-06-22T03:29:47;13.65;;;5.65;;
11398;SDS011;5755;48.116;11.608;2023-06-22T03:32:14;10.73;;;5.38;;
11398;SDS011;5755;48.116;11.608;2023-06-22T03:34:41;12.48;;;5.82;;
11398;SDS011;5755;48.116;11.608;2023-06-22T03:37:12;10.90;;;5.90;;
11398;SDS011;5755;48.116;11.608;2023-06-22T03:39:39;11.27;;;6.00;;
11398;SDS011;5755;48.116;11.608;2023-06-22T03:42:08;10.27;;;6.00;;
11398;SDS011;5755;48.116;11.608;2023-06-22T03:44:34;12.32;;;6.00;;
11398;SDS011;5755;48.116;11.608;2023-06-22T03:47:02;9.95;;;6.05;;
11398;SDS011;5755;48.116;11.608;2023-06-22T03:49:32;10.18;;;6.32;;
11398;SDS011;5755;48.116;11.608;2023-06-22T03:51:59;13.30;;;6.63;;
11398;SDS011;5755;48.116;11.608;2023-06-22T03:54:26;9.48;;;6.15;;
11398;SDS011;5755;48.116;11.608;2023-06-22T03:56:54;10.88;;;6.25;;
11398;SDS011;5755;48.116;11.608;2023-06-22T03:59:22;8.32;;;5.95;;
11398;SDS011;5755;48.116;11.608;2023-06-22T04:01:49;11.65;;;6.35;;
11398;SDS011;5755;48.116;11.608;2023-06-22T04:04:18;13.77;;;6.68;;
11398;SDS011;5755;48.116;11.608;2023-06-22T04:06:45;15.10;;;6.90;;
11398;SDS011;5755;48.116;11.608;2023-06-22T04:09:12;10.60;;;6.53;;
11398;SDS011;5755;48.116;11.608;2023-06-22T04:11:38;11.20;;;6.60;;
11398;SDS011;5755;48.116;11.608;2023-06-22T04:14:06;12.85;;;6.80;;
11398;SDS011;5755;48.116;11.608;2023-06-22T04:16:34;14.90;;;6.47;;
11398;SDS011;5755;48.116;11.608;2023-06-22T04:19:01;11.00;;;6.60;;
11398;SDS011;5755;48.116;11.608;2023-06-22T04:21:28;14.30;;;6.75;;
11398;SDS011;5755;48.116;11.608;2023-06-22T04:23:55;10.32;;;6.63;;
11398;SDS011;5755;48.116;11.608;2023-06-22T04:26:21;11.52;;;6.68;;
11398;SDS011;5755;48.116;11.608;2023-06-22T04:28:48;10.10;;;6.32;;
11398;SDS011;5755;48.116;11.608;2023-06-22T04:31:20;15.55;;;7.00;;
11398;SDS011;5755;48.116;11.608;2023-06-22T04:33:59;9.05;;;6.50;;
11398;SDS011;5755;48.116;11.608;2023-06-22T04:36:31;10.48;;;6.05;;
11398;SDS011;5755;48.116;11.608;2023-06-22T04:39:02;10.52;;;6.68;;
11398;SDS011;5755;48.116;11.608;2023-06-22T04:41:30;9.65;;;6.97;;
11398;SDS011;5755;48.116;11.608;2023-06-22T04:44:07;13.05;;;7.07;;
11398;SDS011;5755;48.116;11.608;2023-06-22T04:46:34;13.00;;;7.20;;
11398;SDS011;5755;48.116;11.608;2023-06-22T04:49:04;11.40;;;6.65;;
11398;SDS011;5755;48.116;11.608;2023-06-22T04:51:39;11.38;;;6.60;;
11398;SDS011;5755;48.116;11.608;2023-06-22T04:54:07;8.55;;;6.45;;
11398;SDS011;5755;48.116;11.608;2023-06-22T04:56:34;12.43;;;6.75;;
11398;SDS011;5755;48.116;11.608;2023-06-22T04:59:01;13.60;;;7.15;;
11398;SDS011;5755;48.116;11.608;2023-06-22T05:01:29;11.93;;;6.70;;
11398;SDS011;5755;48.116;11.608;2023-06-22T05:03:57;13.57;;;7.05;;
11398;SDS011;5755;48.116;11.608;2023-06-22T05:06:27;13.90;;;7.15;;
11398;SDS011;5755;48.116;11.608;2023-06-22T05:08:55;11.02;;;7.10;;
11398;SDS011;5755;48.116;11.608;2023-06-22T05:11:23;15.25;;;7.18;;
11398;SDS011;5755;48.116;11.608;2023-06-22T05:13:51;11.13;;;6.85;;
11398;SDS011;5755;48.116;11.608;2023-06-22T05:16:18;14.68;;;6.93;;
11398;SDS011;5755;48.116;11.608;2023-06-22T05:18:48;15.07;;;7.43;;
11398;SDS011;5755;48.116;11.608;2023-06-22T05:21:16;14.07;;;8.05;;
11398;SDS011;5755;48.116;11.608;2023-06-22T05:23:46;13.25;;;7.38;;
11398;SDS011;5755;48.116;11.608;2023-06-22T05:26:13;16.88;;;7.72;;
11398;SDS011;5755;48.116;11.608;2023-06-22T05:28:39;13.98;;;7.35;;
11398;SDS011;5755;48.116;11.608;2023-06-22T05:31:06;15.88;;;7.97;;
11398;SDS011;5755;48.116;11.608;2023-06-22T05:33:34;12.70;;;7.82;;
11398;SDS011;5755;48.116;11.608;2023-06-22T05:36:01;14.77;;;7.63;;
11398;SDS011;5755;48.116;11.608;2023-06-22T05:38:28;17.17;;;7.63;;
11398;SDS011;5755;48.116;11.608;2023-06-22T05:40:56;12.10;;;7.55;;
11398;SDS011;5755;48.116;11.608;2023-06-22T05:43:23;14.23;;;7.47;;
11398;SDS011;5755;48.116;11.608;2023-06-22T05:45:50;14.88;;;8.32;;
11398;SDS011;5755;48.116;11.608;2023-06-22T05:48:17;11.40;;;7.25;;
11398;SDS011;5755;48.116;11.608;2023-06-22T05:50:44;16.73;;;6.97;;
11398;SDS011;5755;48.116;11.608;2023-06-22T05:53:11;12.90;;;7.57;;
11398;SDS011;5755;48.116;11.608;2023-06-22T05:55:38;14.65;;;7.43;;
11398;SDS011;5755;48.116;11.608;2023-06-22T05:58:06;12.63;;;7.75;;
11398;SDS011;5755;48.116;11.608;2023-06-22T06:00:33;13.93;;;7.18;;
11398;SDS011;5755;48.116;11.608;2023-06-22T06:03:01;19.15;;;7.22;;
11398;SDS011;5755;48.116;11.608;2023-06-22T06:05:28;15.45;;;7.15;;
11398;SDS011;5755;48.116;11.608;2023-06-22T06:07:56;11.38;;;7.18;;
11398;SDS011;5755;48.116;11.608;2023-06-22T06:10:23;15.35;;;7.40;;
11398;SDS011;5755;48.116;11.608;2023-06-22T06:12:50;16.95;;;7.63;;
11398;SDS011;5755;48.116;11.608;2023-06-22T06:15:18;14.32;;;7.28;;
11398;SDS011;5755;48.116;11.608;2023-06-22T06:17:46;15.43;;;6.90;;
11398;SDS011;5755;48.116;11.608;2023-06-22T06:20:13;12.18;;;7.13;;
11398;SDS011;5755;48.116;11.608;2023-06-22T06:22:40;12.57;;;7.30;;
11398;SDS011;5755;48.116;11.608;2023-06-22T06:25:08;13.00;;;6.90;;
11398;SDS011;5755;48.116;11.608;2023-06-22T06:27:40;12.35;;;6.90;;
11398;SDS011;5755;48.116;11.608;2023-06-22T06:30:08;11.52;;;7.20;;
11398;SDS011;5755;48.116;11.608;2023-06-22T06:32:37;12.90;;;7.13;;
11398;SDS011;5755;48.116;11.608;2023-06-22T06:35:05;12.13;;;6.90;;
11398;SDS011;5755;48.116;11.608;2023-06-22T06:37:35;18.25;;;7.88;;
11398;SDS011;5755;48.116;11.608;2023-06-22T06:40:03;14.88;;;7.25;;
11398;SDS011;5755;48.116;11.608;2023-06-22T06:42:32;15.68;;;7.90;;
11398;SDS011;5755;48.116;11.608;2023-06-22T06:44:59;14.63;;;6.93;;
11398;SDS011;5755;48.116;11.608;2023-06-22T06:47:26;17.15;;;7.57;;
11398;SDS011;5755;48.116;11.608;2023-06-22T06:49:54;13.15;;;7.85;;
11398;SDS011;5755;48.116;11.608;2023-06-22T06:52:21;16.38;;;8.07;;
11398;SDS011;5755;48.116;11.608;2023-06-22T06:54:48;13.38;;;8.02;;
11398;SDS011;5755;48.116;11.608;2023-06-22T06:57:16;17.35;;;7.68;;
11398;SDS011;5755;48.116;11.608;2023-06-22T06:59:45;11.27;;;7.07;;
11398;SDS011;5755;48.116;11.608;2023-06-22T07:02:12;14.68;;;8.07;;
11398;SDS011;5755;48.116;11.608;2023-06-22T07:04:39;13.55;;;7.25;;
11398;SDS011;5755;48.116;11.608;2023-06-22T07:07:08;12.45;;;7.45;;
11398;SDS011;5755;48.116;11.608;2023-06-22T07:09:35;11.52;;;7.07;;
11398;SDS011;5755;48.116;11.608;2023-06-22T07:12:02;13.27;;;7.78;;
11398;SDS011;5755;48.116;11.608;2023-06-22T07:14:29;13.63;;;7.63;;
11398;SDS011;5755;48.116;11.608;2023-06-22T07:16:56;15.70;;;7.68;;
11398;SDS011;5755;48.116;11.608;2023-06-22T07:19:26;13.25;;;7.50;;
11398;SDS011;5755;48.116;11.608;2023-06-22T07:21:54;12.70;;;7.28;;
11398;SDS011;5755;48.116;11.608;2023-06-22T07:24:22;15.50;;;7.40;;
11398;SDS011;5755;48.116;11.608;2023-06-22T07:26:50;13.98;;;8.30;;
11398;SDS011;5755;48.116;11.608;2023-06-22T07:29:17;15.25;;;7.43;;
11398;SDS011;5755;48.116;11.608;2023-06-22T07:31:45;19.58;;;10.50;;
11398;SDS011;5755;48.116;11.608;2023-06-22T07:34:12;14.38;;;7.80;;
11398;SDS011;5755;48.116;11.608;2023-06-22T07:36:39;17.00;;;7.70;;
11398;SDS011;5755;48.116;11.608;2023-06-22T07:39:06;13.07;;;7.53;;
11398;SDS011;5755;48.116;11.608;2023-06-22T07:41:34;15.38;;;7.82;;
11398;SDS011;5755;48.116;11.608;2023-06-22T07:44:01;15.95;;;8.05;;
11398;SDS011;5755;48.116;11.608;2023-06-22T07:46:28;15.68;;;7.00;;
11398;SDS011;5755;48.116;11.608;2023-06-22T07:48:56;12.95;;;7.65;;
11398;SDS011;5755;48.116;11.608;2023-06-22T07:51:23;14.80;;;7.45;;
11398;SDS011;5755;48.116;11.608;2023-06-22T07:53:50;17.75;;;7.35;;
11398;SDS011;5755;48.116;11.608;2023-06-22T07:56:17;19.13;;;8.40;;
11398;SDS011;5755;48.116;11.608;2023-06-22T07:58:46;15.43;;;7.45;;
11398;SDS011;5755;48.116;11.608;2023-06-22T08:01:13;14.57;;;7.20;;
11398;SDS011;5755;48.116;11.608;2023-06-22T08:03:41;13.05;;;7.22;;
11398;SDS011;5755;48.116;11.608;2023-06-22T08:06:08;15.38;;;7.38;;
11398;SDS011;5755;48.116;11.608;2023-06-22T08:08:35;13.55;;;7.40;;
11398;SDS011;5755;48.116;11.608;2023-06-22T08:11:03;15.93;;;7.10;;
11398;SDS011;5755;48.116;11.608;2023-06-22T08:13:30;16.27;;;7.72;;
11398;SDS011;5755;48.116;11.608;2023-06-22T08:15:59;15.38;;;7.57;;
11398;SDS011;5755;48.116;11.608;2023-06-22T08:18:26;15.25;;;7.07;;
11398;SDS011;5755;48.116;11.608;2023-06-22T08:20:53;13.15;;;7.10;;
11398;SDS011;5755;48.116;11.608;2023-06-22T08:23:19;12.52;;;6.97;;
11398;SDS011;5755;48.116;11.608;2023-06-22T08:25:47;16.02;;;7.95;;
11398;SDS011;5755;48.116;11.608;2023-06-22T08:28:15;14.77;;;7.95;;
11398;SDS011;5755;48.116;11.608;2023-06-22T08:30:42;15.10;;;7.60;;
11398;SDS011;5755;48.116;11.608;2023-06-22T08:33:10;16.48;;;7.97;;
11398;SDS011;5755;48.116;11.608;2023-06-22T08:35:37;11.80;;;7.57;;
11398;SDS011;5755;48.116;11.608;2023-06-22T08:38:04;18.65;;;7.70;;
11398;SDS011;5755;48.116;11.608;2023-06-22T08:40:32;17.55;;;8.30;;
11398;SDS011;5755;48.116;11.608;2023-06-22T08:42:59;16.23;;;8.27;;
11398;SDS011;5755;48.116;11.608;2023-06-22T08:45:26;21.33;;;8.73;;
11398;SDS011;5755;48.116;11.608;2023-06-22T08:47:53;16.42;;;8.13;;
11398;SDS011;5755;48.116;11.608;2023-06-22T08:50:21;12.95;;;7.55;;
11398;SDS011;5755;48.116;11.608;2023-06-22T08:52:48;14.85;;;7.78;;
11398;SDS011;5755;48.116;11.608;2023-06-22T08:55:15;17.08;;;8.02;;
11398;SDS011;5755;48.116;11.608;2023-06-22T08:57:42;13.00;;;7.90;;
11398;SDS011;5755;48.116;11.608;2023-06-22T09:00:09;16.35;;;7.65;;
11398;SDS011;5755;48.116;11.608;2023-06-22T09:02:42;23.17;;;8.23;;
11398;SDS011;5755;48.116;11.608;2023-06-22T09:05:09;16.92;;;8.10;;
11398;SDS011;5755;48.116;11.608;2023-06-22T09:07:37;15.13;;;7.75;;
11398;SDS011;5755;48.116;11.608;2023-06-22T09:10:05;16.00;;;7.90;;
11398;SDS011;5755;48.116;11.608;2023-06-22T09:12:33;13.38;;;7.80;;
11398;SDS011;5755;48.116;11.608;2023-06-22T09:15:03;14.48;;;8.55;;
11398;SDS011;5755;48.116;11.608;2023-06-22T09:17:32;15.85;;;8.50;;
11398;SDS011;5755;48.116;11.608;2023-06-22T09:20:00;15.07;;;7.97;;
11398;SDS011;5755;48.116;11.608;2023-06-22T09:22:30;17.15;;;8.15;;
11398;SDS011;5755;48.116;11.608;2023-06-22T09:25:00;14.13;;;7.85;;
11398;SDS011;5755;48.116;11.608;2023-06-22T09:27:28;15.80;;;7.68;;
11398;SDS011;5755;48.116;11.608;2023-06-22T09:29:56;19.40;;;8.32;;
11398;SDS011;5755;48.116;11.608;2023-06-22T09:32:24;13.23;;;7.30;;
11398;SDS011;5755;48.116;11.608;2023-06-22T09:34:51;18.92;;;7.68;;
11398;SDS011;5755;48.116;11.608;2023-06-22T09:37:18;16.20;;;7.75;;
11398;SDS011;5755;48.116;11.608;2023-06-22T09:39:46;14.75;;;7.65;;
11398;SDS011;5755;48.116;11.608;2023-06-22T09:42:15;14.77;;;7.80;;
11398;SDS011;5755;48.116;11.608;2023-06-22T09:44:42;15.60;;;8.15;;
11398;SDS011;5755;48.116;11.608;2023-06-22T09:47:10;19.92;;;8.80;;
11398;SDS011;5755;48.116;11.608;2023-06-22T09:49:41;15.48;;;8.50;;
11398;SDS011;5755;48.116;11.608;2023-06-22T09:52:09;17.42;;;8.90;;
11398;SDS011;5755;48.116;11.608;2023-06-22T09:54:37;14.68;;;8.43;;
11398;SDS011;5755;48.116;11.608;2023-06-22T09:57:04;14.50;;;8.63;;
11398;SDS011;5755;48.116;11.608;2023-06-22T09:59:32;15.38;;;9.63;;
11398;SDS011;5755;48.116;11.608;2023-06-22T10:01:59;19.45;;;9.25;;
11398;SDS011;5755;48.116;11.608;2023-06-22T10:04:26;14.68;;;8.68;;
11398;SDS011;5755;48.116;11.608;2023-06-22T10:06:53;17.20;;;8.80;;
11398;SDS011;5755;48.116;11.608;2023-06-22T10:09:20;16.52;;;9.30;;
11398;SDS011;5755;48.116;11.608;2023-06-22T10:11:47;19.02;;;9.20;;
11398;SDS011;5755;48.116;11.608;2023-06-22T10:14:14;16.65;;;9.73;;
11398;SDS011;5755;48.116;11.608;2023-06-22T10:16:43;14.13;;;9.13;;
11398;SDS011;5755;48.116;11.608;2023-06-22T10:19:24;16.05;;;9.23;;
11398;SDS011;5755;48.116;11.608;2023-06-22T10:21:51;15.50;;;9.48;;
11398;SDS011;5755;48.116;11.608;2023-06-22T10:24:19;16.77;;;9.77;;
11398;SDS011;5755;48.116;11.608;2023-06-22T10:26:46;12.43;;;8.63;;
11398;SDS011;5755;48.116;11.608;2023-06-22T10:29:12;15.65;;;8.80;;
11398;SDS011;5755;48.116;11.608;2023-06-22T10:31:39;15.45;;;9.27;;
11398;SDS011;5755;48.116;11.608;2023-06-22T10:34:08;18.65;;;9.30;;
11398;SDS011;5755;48.116;11.608;2023-06-22T10:36:34;14.10;;;8.93;;
11398;SDS011;5755;48.116;11.608;2023-06-22T10:39:02;14.18;;;8.77;;
11398;SDS011;5755;48.116;11.608;2023-06-22T10:41:28;16.50;;;9.43;;
11398;SDS011;5755;48.116;11.608;2023-06-22T10:43:56;17.35;;;9.10;;
11398;SDS011;5755;48.116;11.608;2023-06-22T10:46:23;17.10;;;8.75;;
11398;SDS011;5755;48.116;11.608;2023-06-22T10:48:51;18.42;;;8.65;;
11398;SDS011;5755;48.116;11.608;2023-06-22T10:51:21;16.70;;;9.02;;
11398;SDS011;5755;48.116;11.608;2023-06-22T10:53:48;17.83;;;8.55;;
11398;SDS011;5755;48.116;11.608;2023-06-22T10:56:16;17.52;;;8.63;;
11398;SDS011;5755;48.116;11.608;2023-06-22T10:58:44;21.08;;;8.90;;
11398;SDS011;5755;48.116;11.608;2023-06-22T11:01:11;15.68;;;7.70;;
11398;SDS011;5755;48.116;11.608;2023-06-22T11:03:38;12.95;;;7.90;;
11398;SDS011;5755;48.116;11.608;2023-06-22T11:06:05;17.05;;;7.97;;
11398;SDS011;5755;48.116;11.608;2023-06-22T11:08:33;16.48;;;8.23;;
11398;SDS011;5755;48.116;11.608;2023-06-22T11:11:00;22.17;;;8.20;;
11398;SDS011;5755;48.116;11.608;2023-06-22T11:13:27;13.40;;;7.75;;
11398;SDS011;5755;48.116;11.608;2023-06-22T11:15:54;17.92;;;7.95;;
11398;SDS011;5755;48.116;11.608;2023-06-22T11:18:21;15.27;;;7.80;;
11398;SDS011;5755;48.116;11.608;2023-06-22T11:20:48;16.35;;;8.05;;
11398;SDS011;5755;48.116;11.608;2023-06-22T11:23:15;18.50;;;8.05;;
11398;SDS011;5755;48.116;11.608;2023-06-22T11:25:43;17.35;;;7.32;;
11398;SDS011;5755;48.116;11.608;2023-06-22T11:28:11;18.45;;;7.13;;
11398;SDS011;5755;48.116;11.608;2023-06-22T11:30:39;14.65;;;7.30;;
11398;SDS011;5755;48.116;11.608;2023-06-22T11:33:06;18.67;;;7.90;;
11398;SDS011;5755;48.116;11.608;2023-06-22T11:35:33;19.13;;;8.10;;
11398;SDS011;5755;48.116;11.608;2023-06-22T11:38:00;18.58;;;7.85;;
11398;SDS011;5755;48.116;11.608;2023-06-22T11:40:28;16.45;;;7.00;;
11398;SDS011;5755;48.116;11.608;2023-06-22T11:42:56;16.77;;;7.75;;
11398;SDS011;5755;48.116;11.608;2023-06-22T11:45:23;18.42;;;7.63;;
11398;SDS011;5755;48.116;11.608;2023-06-22T11:47:50;13.95;;;7.07;;
11398;SDS011;5755;48.116;11.608;2023-06-22T11:50:18;18.42;;;8.40;;
11398;SDS011;5755;48.116;11.608;2023-06-22T11:52:44;18.67;;;7.57;;
11398;SDS011;5755;48.116;11.608;2023-06-22T11:55:11;19.45;;;7.70;;
11398;SDS011;5755;48.116;11.608;2023-06-22T11:57:39;18.52;;;8.07;;
11398;SDS011;5755;48.116;11.608;2023-06-22T12:00:21;20.90;;;8.52;;
11398;SDS011;5755;48.116;11.608;2023-06-22T12:02:49;19.35;;;8.23;;
11398;SDS011;5755;48.116;11.608;2023-06-22T12:05:17;21.75;;;8.15;;
11398;SDS011;5755;48.116;11.608;2023-06-22T12:07:45;14.55;;;7.80;;
11398;SDS011;5755;48.116;11.608;2023-06-22T12:10:12;17.27;;;8.00;;
11398;SDS011;5755;48.116;11.608;2023-06-22T12:12:39;18.52;;;8.55;;
11398;SDS011;5755;48.116;11.608;2023-06-22T12:15:06;15.90;;;8.13;;
11398;SDS011;5755;48.116;11.608;2023-06-22T12:17:35;15.75;;;7.97;;
11398;SDS011;5755;48.116;11.608;2023-06-22T12:20:02;17.88;;;8.57;;
11398;SDS011;5755;48.116;11.608;2023-06-22T12:22:30;18.67;;;8.13;;
11398;SDS011;5755;48.116;11.608;2023-06-22T12:24:57;21.55;;;8.35;;
11398;SDS011;5755;48.116;11.608;2023-06-22T12:27:24;16.77;;;7.93;;
11398;SDS011;5755;48.116;11.608;2023-06-22T12:29:51;15.07;;;7.78;;
11398;SDS011;5755;48.116;11.608;2023-06-22T12:32:18;17.10;;;7.68;;
11398;SDS011;5755;48.116;11.608;2023-06-22T12:34:47;18.05;;;7.63;;
11398;SDS011;5755;48.116;11.608;2023-06-22T12:37:14;16.38;;;7.50;;
11398;SDS011;5755;48.116;11.608;2023-06-22T12:39:41;17.77;;;8.07;;
11398;SDS011;5755;48.116;11.608;2023-06-22T12:42:08;18.45;;;7.63;;
11398;SDS011;5755;48.116;11.608;2023-06-22T12:44:37;12.50;;;7.15;;
11398;SDS011;5755;48.116;11.608;2023-06-22T12:47:04;16.30;;;7.60;;
11398;SDS011;5755;48.116;11.608;2023-06-22T12:49:31;21.13;;;8.05;;
11398;SDS011;5755;48.116;11.608;2023-06-22T12:52:00;22.63;;;7.88;;
11398;SDS011;5755;48.116;11.608;2023-06-22T12:54:27;16.98;;;7.22;;
11398;SDS011;5755;48.116;11.608;2023-06-22T12:56:55;18.63;;;8.07;;
11398;SDS011;5755;48.116;11.608;2023-06-22T12:59:22;18.13;;;8.07;;
11398;SDS011;5755;48.116;11.608;2023-06-22T13:01:50;18.17;;;7.78;;
11398;SDS011;5755;48.116;11.608;2023-06-22T13:04:17;14.07;;;7.43;;
11398;SDS011;5755;48.116;11.608;2023-06-22T13:06:44;17.02;;;7.82;;
11398;SDS011;5755;48.116;11.608;2023-06-22T13:09:14;20.48;;;7.32;;
11398;SDS011;5755;48.116;11.608;2023-06-22T13:11:42;15.73;;;7.63;;
11398;SDS011;5755;48.116;11.608;2023-06-22T13:14:09;14.93;;;7.78;;
11398;SDS011;5755;48.116;11.608;2023-06-22T13:16:36;18.20;;;8.13;;
11398;SDS011;5755;48.116;11.608;2023-06-22T13:19:03;19.55;;;7.55;;
11398;SDS011;5755;48.116;11.608;2023-06-22T13:21:30;17.23;;;7.70;;
11398;SDS011;5755;48.116;11.608;2023-06-22T13:23:59;18.10;;;6.90;;
11398;SDS011;5755;48.116;11.608;2023-06-22T13:26:27;15.60;;;7.35;;
11398;SDS011;5755;48.116;11.608;2023-06-22T13:28:55;16.02;;;6.85;;
11398;SDS011;5755;48.116;11.608;2023-06-22T13:31:22;16.95;;;6.88;;
11398;SDS011;5755;48.116;11.608;2023-06-22T13:33:49;15.80;;;6.93;;
11398;SDS011;5755;48.116;11.608;2023-06-22T13:36:17;14.38;;;6.70;;
11398;SDS011;5755;48.116;11.608;2023-06-22T13:38:44;18.55;;;7.35;;
11398;SDS011;5755;48.116;11.608;2023-06-22T13:41:12;18.65;;;7.82;;
11398;SDS011;5755;48.116;11.608;2023-06-22T13:43:40;12.48;;;7.10;;
11398;SDS011;5755;48.116;11.608;2023-06-22T13:46:07;15.02;;;7.00;;
11398;SDS011;5755;48.116;11.608;2023-06-22T13:48:34;24.52;;;6.97;;
11398;SDS011;5755;48.116;11.608;2023-06-22T13:51:01;16.42;;;7.57;;
11398;SDS011;5755;48.116;11.608;2023-06-22T13:53:28;14.05;;;7.50;;
11398;SDS011;5755;48.116;11.608;2023-06-22T13:55:55;16.33;;;6.80;;
11398;SDS011;5755;48.116;11.608;2023-06-22T13:58:22;14.95;;;7.03;;
11398;SDS011;5755;48.116;11.608;2023-06-22T14:00:50;19.95;;;7.60;;
11398;SDS011;5755;48.116;11.608;2023-06-22T14:03:17;15.93;;;7.38;;
11398;SDS011;5755;48.116;11.608;2023-06-22T14:05:44;17.30;;;7.22;;
11398;SDS011;5755;48.116;11.608;2023-06-22T14:08:11;19.85;;;6.95;;
11398;SDS011;5755;48.116;11.608;2023-06-22T14:10:39;17.60;;;7.22;;
11398;SDS011;5755;48.116;11.608;2023-06-22T14:13:06;14.98;;;6.90;;
11398;SDS011;5755;48.116;11.608;2023-06-22T14:15:33;15.30;;;7.22;;
11398;SDS011;5755;48.116;11.608;2023-06-22T14:18:02;20.13;;;7.30;;
11398;SDS011;5755;48.116;11.608;2023-06-22T14:20:29;17.58;;;7.13;;
11398;SDS011;5755;48.116;11.608;2023-06-22T14:22:58;19.52;;;7.07;;
11398;SDS011;5755;48.116;11.608;2023-06-22T14:25:25;13.20;;;7.35;;
11398;SDS011;5755;48.116;11.608;2023-06-22T14:27:52;16.42;;;6.75;;
11398;SDS011;5755;48.116;11.608;2023-06-22T14:30:18;14.07;;;6.32;;
11398;SDS011;5755;48.116;11.608;2023-06-22T14:32:45;17.02;;;7.13;;
11398;SDS011;5755;48.116;11.608;2023-06-22T14:35:13;15.10;;;6.63;;
11398;SDS011;5755;48.116;11.608;2023-06-22T14:37:40;22.42;;;6.97;;
11398;SDS011;5755;48.116;11.608;2023-06-22T14:40:08;12.68;;;6.90;;